createdAt,value
2022-12-24T00:01:20.132Z,94496.22
2022-12-24T00:03:21.919Z,94502.03
2022-12-24T00:05:23.818Z,94499.72
2022-12-24T00:07:25.703Z,94500.00
2022-12-24T00:09:27.440Z,94497.78
2022-12-24T00:11:29.375Z,94499.31
2022-12-24T00:13:31.360Z,94505.88
2022-12-24T00:15:33.085Z,94505.72
2022-12-24T00:17:34.793Z,94502.44
2022-12-24T00:19:36.548Z,94509.25
2022-12-24T00:21:38.182Z,94510.09
2022-12-24T00:23:40.432Z,94511.72
2022-12-24T00:25:42.233Z,94519.00
2022-12-24T00:27:43.934Z,94506.81
2022-12-24T00:29:45.748Z,94504.38
2022-12-24T00:31:47.469Z,94499.44
2022-12-24T00:33:50.003Z,94502.72
2022-12-24T00:35:52.830Z,94499.31
2022-12-24T00:37:54.550Z,94499.44
2022-12-24T00:39:56.290Z,94508.19
2022-12-24T00:41:57.980Z,94508.47
2022-12-24T00:44:02.054Z,94502.03
2022-12-24T00:46:03.807Z,94500.41
2022-12-24T00:48:05.810Z,94496.81
2022-12-24T00:50:08.251Z,94501.47
2022-12-24T00:52:09.973Z,94507.22
2022-12-24T00:54:12.050Z,94502.31
2022-12-24T00:56:13.876Z,94507.63
2022-12-24T00:58:15.568Z,94504.91
2022-12-24T01:00:18.118Z,94508.19
2022-12-24T01:02:20.157Z,94515.31
2022-12-24T01:04:40.735Z,94509.69
2022-12-24T01:06:42.571Z,94508.31
2022-12-24T01:08:44.262Z,94507.38
2022-12-24T01:10:46.130Z,94509.31
2022-12-24T01:12:48.072Z,94517.56
2022-12-24T01:14:49.865Z,94520.31
2022-12-24T01:16:51.492Z,94522.75
2022-12-24T01:18:53.709Z,94517.69
2022-12-24T01:21:01.534Z,94518.22
2022-12-24T01:23:03.253Z,94509.06
2022-12-24T01:25:05.381Z,94500.44
2022-12-24T01:27:07.068Z,94496.44
2022-12-24T01:29:08.786Z,94491.63
2022-12-24T01:31:15.414Z,94496.09
2022-12-24T01:33:17.250Z,94499.06
2022-12-24T01:35:18.905Z,94502.56
2022-12-24T01:37:20.712Z,94512.97
2022-12-24T01:39:22.478Z,94511.28
2022-12-24T01:41:43.764Z,94508.97
2022-12-24T01:43:45.792Z,94513.69
2022-12-24T01:45:49.198Z,94513.97
2022-12-24T01:47:50.973Z,94503.91
2022-12-24T01:49:57.423Z,94496.47
2022-12-24T01:52:03.795Z,94501.84
2022-12-24T01:54:08.539Z,94508.22
2022-12-24T01:56:10.944Z,94504.72
2022-12-24T01:58:14.500Z,94504.91
2022-12-24T02:00:16.840Z,94503.50
2022-12-24T02:02:19.517Z,94499.63
2022-12-24T02:04:26.228Z,94498.97
2022-12-24T02:06:28.080Z,94488.97
2022-12-24T02:08:40.137Z,94494.88
2022-12-24T02:10:42.301Z,94490.38
2022-12-24T02:12:44.691Z,94489.09
2022-12-24T02:14:46.389Z,94487.50
2022-12-24T02:16:58.216Z,94488.88
2022-12-24T02:19:11.519Z,94494.06
2022-12-24T02:21:22.714Z,94498.31
2022-12-24T02:23:58.066Z,94497.66
2022-12-24T02:26:20.466Z,94509.56
2022-12-24T02:28:40.608Z,94501.75
2022-12-24T02:30:45.026Z,94494.50
2022-12-24T02:32:58.639Z,94501.75
2022-12-24T02:35:12.786Z,94497.50
2022-12-24T02:37:35.122Z,94500.38
2022-12-24T02:40:01.390Z,94496.56
2022-12-24T02:42:06.004Z,94496.31
2022-12-24T02:44:07.682Z,94501.25
2022-12-24T02:46:13.196Z,94488.09
2022-12-24T02:48:17.561Z,94491.09
2022-12-24T02:50:20.484Z,94484.50
2022-12-24T02:52:51.613Z,94482.03
2022-12-24T02:54:53.283Z,94477.94
2022-12-24T02:57:19.009Z,94478.16
2022-12-24T02:59:33.088Z,94462.66
2022-12-24T03:02:06.646Z,94469.88
2022-12-24T03:04:12.065Z,94484.34
2022-12-24T03:06:52.363Z,94476.16
2022-12-24T03:09:06.447Z,94480.41
2022-12-24T03:11:12.805Z,94472.34
2022-12-24T03:13:17.079Z,94473.88
2022-12-24T03:15:22.224Z,94467.44
2022-12-24T03:17:23.972Z,94466.06
2022-12-24T03:19:26.664Z,94476.03
2022-12-24T03:21:31.985Z,94478.94
2022-12-24T03:23:34.449Z,94471.97
2022-12-24T03:25:40.216Z,94474.03
2022-12-24T03:27:42.390Z,94470.84
2022-12-24T03:29:45.303Z,94470.66
2022-12-24T03:31:50.972Z,94480.94
2022-12-24T03:33:52.659Z,94475.16
2022-12-24T03:35:54.341Z,94469.75
2022-12-24T03:37:56.888Z,94471.13
2022-12-24T03:39:58.805Z,94476.16
2022-12-24T03:42:00.466Z,94484.09
2022-12-24T03:44:02.183Z,94480.22
2022-12-24T03:46:06.756Z,94480.75
2022-12-24T03:48:08.553Z,94474.25
2022-12-24T03:50:10.438Z,94488.28
2022-12-24T03:52:12.210Z,94490.81
2022-12-24T03:54:13.877Z,94479.94
2022-12-24T03:56:15.617Z,94479.91
2022-12-24T03:58:17.437Z,94480.91
2022-12-24T04:00:19.732Z,94493.50
2022-12-24T04:02:21.603Z,94497.41
2022-12-24T04:04:23.411Z,94495.31
2022-12-24T04:06:25.075Z,94502.00
2022-12-24T04:08:26.821Z,94502.34
2022-12-24T04:10:28.481Z,94509.03
2022-12-24T04:12:30.158Z,94512.97
2022-12-24T04:14:32.034Z,94509.56
2022-12-24T04:16:33.811Z,94515.53
2022-12-24T04:18:36.150Z,94507.50
2022-12-24T04:20:38.027Z,94498.97
2022-12-24T04:22:39.685Z,94501.53
2022-12-24T04:24:41.550Z,94505.47
2022-12-24T04:26:43.346Z,94501.69
2022-12-24T04:28:45.049Z,94507.06
2022-12-24T04:30:46.707Z,94515.94
2022-12-24T04:32:48.393Z,94518.41
2022-12-24T04:34:50.188Z,94519.47
2022-12-24T04:36:51.894Z,94533.00
2022-12-24T04:38:53.740Z,94526.94
2022-12-24T04:41:00.408Z,94535.47
2022-12-24T04:43:02.264Z,94532.81
2022-12-24T04:45:04.306Z,94530.06
2022-12-24T04:47:05.998Z,94525.53
2022-12-24T04:49:08.219Z,94525.75
2022-12-24T04:51:10.133Z,94518.63
2022-12-24T04:53:15.076Z,94523.47
2022-12-24T04:55:16.765Z,94517.31
2022-12-24T04:57:18.522Z,94517.56
2022-12-24T04:59:20.224Z,94507.22
2022-12-24T05:01:27.188Z,94513.78
2022-12-24T05:03:29.095Z,94506.94
2022-12-24T05:05:31.137Z,94510.66
2022-12-24T05:07:34.349Z,94500.44
2022-12-24T05:09:36.337Z,94494.88
2022-12-24T05:11:38.105Z,94506.06
2022-12-24T05:13:46.604Z,94500.19
2022-12-24T05:15:49.270Z,94497.28
2022-12-24T05:17:51.313Z,94486.50
2022-12-24T05:19:52.980Z,94484.38
2022-12-24T05:22:12.934Z,94488.72
2022-12-24T05:24:33.472Z,94481.59
2022-12-24T05:26:40.099Z,94495.69
2022-12-24T05:28:41.809Z,94496.97
2022-12-24T05:30:43.564Z,94505.19
2022-12-24T05:32:45.205Z,94501.50
2022-12-24T05:34:46.978Z,94513.41
2022-12-24T05:36:48.638Z,94506.31
2022-12-24T05:38:50.750Z,94503.91
2022-12-24T05:40:52.494Z,94497.13
2022-12-24T05:42:54.207Z,94493.59
2022-12-24T05:44:56.199Z,94497.44
2022-12-24T05:46:57.907Z,94497.28
2022-12-24T05:48:59.636Z,94488.34
2022-12-24T05:51:06.230Z,94490.44
2022-12-24T05:53:08.339Z,94482.66
2022-12-24T05:55:10.341Z,94473.66
2022-12-24T05:57:12.156Z,94481.06
2022-12-24T05:59:13.906Z,94495.13
2022-12-24T06:01:16.223Z,94487.59
2022-12-24T06:03:17.993Z,94489.50
2022-12-24T06:05:19.592Z,94494.91
2022-12-24T06:07:21.896Z,94499.22
2022-12-24T06:09:23.597Z,94502.78
2022-12-24T06:11:27.223Z,94498.91
2022-12-24T06:13:29.253Z,94498.22
2022-12-24T06:15:31.196Z,94516.50
2022-12-24T06:17:33.639Z,94515.66
2022-12-24T06:19:35.365Z,94516.03
2022-12-24T06:21:37.111Z,94518.97
2022-12-24T06:23:40.614Z,94518.03
2022-12-24T06:25:42.310Z,94507.28
2022-12-24T06:27:44.054Z,94515.34
2022-12-24T06:29:45.733Z,94512.41
2022-12-24T06:31:47.465Z,94524.91
2022-12-24T06:33:49.714Z,94523.75
2022-12-24T06:35:51.477Z,94521.13
2022-12-24T06:37:53.164Z,94526.50
2022-12-24T06:39:54.894Z,94536.09
2022-12-24T06:41:56.581Z,94531.19
2022-12-24T06:43:58.328Z,94539.69
2022-12-24T06:46:00.587Z,94536.81
2022-12-24T06:48:02.492Z,94536.28
2022-12-24T06:50:04.897Z,94539.84
2022-12-24T06:52:06.980Z,94534.38
2022-12-24T06:54:08.968Z,94539.84
2022-12-24T06:56:13.552Z,94539.06
2022-12-24T06:58:15.272Z,94536.19
2022-12-24T07:00:17.507Z,94533.84
2022-12-24T07:02:19.373Z,94537.56
2022-12-24T07:04:21.229Z,94532.81
2022-12-24T07:06:28.636Z,94538.97
2022-12-24T07:08:33.682Z,94541.97
2022-12-24T07:10:36.666Z,94541.88
2022-12-24T07:12:38.483Z,94538.97
2022-12-24T07:14:40.315Z,94533.09
2022-12-24T07:16:42.037Z,94538.72
2022-12-24T07:18:44.441Z,94543.94
2022-12-24T07:20:46.250Z,94548.44
2022-12-24T07:22:47.952Z,94543.78
2022-12-24T07:24:49.616Z,94540.34
2022-12-24T07:26:51.558Z,94537.06
2022-12-24T07:28:53.512Z,94536.09
2022-12-24T07:30:56.779Z,94544.06
2022-12-24T07:32:58.556Z,94548.56
2022-12-24T07:35:00.370Z,94548.44
2022-12-24T07:37:02.180Z,94550.63
2022-12-24T07:39:03.969Z,94549.31
2022-12-24T07:41:05.874Z,94551.06
2022-12-24T07:43:07.878Z,94545.41
2022-12-24T07:45:10.527Z,94547.88
2022-12-24T07:47:12.340Z,94550.75
2022-12-24T07:49:14.201Z,94559.16
2022-12-24T07:51:15.880Z,94551.50
2022-12-24T07:53:17.641Z,94553.56
2022-12-24T07:55:19.638Z,94561.38
2022-12-24T07:57:21.441Z,94562.88
2022-12-24T07:59:23.330Z,94561.91
2022-12-24T08:01:25.197Z,94565.91
2022-12-24T08:03:27.916Z,94571.25
2022-12-24T08:05:35.069Z,94574.38
2022-12-24T08:07:36.844Z,94579.59
2022-12-24T08:09:38.661Z,94584.53
2022-12-24T08:11:42.442Z,94583.84
2022-12-24T08:13:48.222Z,94585.78
2022-12-24T08:15:50.011Z,94592.34
2022-12-24T08:17:51.845Z,94593.44
2022-12-24T08:19:53.583Z,94586.59
2022-12-24T08:21:55.449Z,94580.84
2022-12-24T08:23:57.640Z,94583.03
2022-12-24T08:25:59.380Z,94568.78
2022-12-24T08:28:01.201Z,94573.44
2022-12-24T08:30:04.280Z,94571.50
2022-12-24T08:32:06.148Z,94562.97
2022-12-24T08:34:09.212Z,94561.06
2022-12-24T08:36:10.952Z,94556.13
2022-12-24T08:38:12.758Z,94558.84
2022-12-24T08:40:14.492Z,94553.25
2022-12-24T08:43:03.978Z,94548.97
2022-12-24T08:45:49.123Z,94560.91
2022-12-24T08:47:50.845Z,94564.94
2022-12-24T08:49:52.863Z,94557.81
2022-12-24T08:51:54.597Z,94570.94
2022-12-24T08:53:56.318Z,94587.16
2022-12-24T08:56:06.006Z,94590.69
2022-12-24T08:58:07.829Z,94579.19
2022-12-24T09:00:12.211Z,94585.22
2022-12-24T09:02:14.215Z,94585.22
2022-12-24T09:04:16.162Z,94579.03
2022-12-24T09:06:18.107Z,94576.69
2022-12-24T09:08:20.715Z,94566.78
2022-12-24T09:10:22.660Z,94562.63
2022-12-24T09:12:24.417Z,94559.03
2022-12-24T09:14:26.707Z,94559.97
2022-12-24T09:16:28.904Z,94567.63
2022-12-24T09:18:31.062Z,94568.00
2022-12-24T09:20:32.913Z,94557.88
2022-12-24T09:22:37.149Z,94558.53
2022-12-24T09:24:38.910Z,94550.69
2022-12-24T09:26:42.584Z,94556.69
2022-12-24T09:28:44.836Z,94551.31
2022-12-24T09:30:55.801Z,94553.69
2022-12-24T09:32:57.566Z,94556.91
2022-12-24T09:34:59.537Z,94551.44
2022-12-24T09:37:04.233Z,94547.47
2022-12-24T09:39:05.927Z,94555.47
2022-12-24T09:41:15.100Z,94557.38
2022-12-24T09:43:20.690Z,94555.34
2022-12-24T09:45:27.072Z,94547.91
2022-12-24T09:47:44.141Z,94538.91
2022-12-24T09:49:48.832Z,94537.78
2022-12-24T09:51:55.810Z,94533.53
2022-12-24T09:54:01.188Z,94536.06
2022-12-24T09:56:07.329Z,94536.69
2022-12-24T09:58:18.925Z,94546.88
2022-12-24T10:00:32.629Z,94551.13
2022-12-24T10:02:34.509Z,94535.75
2022-12-24T10:04:36.162Z,94530.63
2022-12-24T10:06:46.275Z,94544.13
2022-12-24T10:09:03.722Z,94557.97
2022-12-24T10:11:30.271Z,94548.97
2022-12-24T10:13:49.916Z,94544.19
2022-12-24T10:16:15.107Z,94546.47
2022-12-24T10:18:38.540Z,94538.34
2022-12-24T10:20:53.266Z,94528.69
2022-12-24T10:23:08.986Z,94528.53
2022-12-24T10:25:22.253Z,94531.03
2022-12-24T10:27:28.658Z,94538.16
2022-12-24T10:29:37.502Z,94532.88
2022-12-24T10:31:58.109Z,94546.00
2022-12-24T10:34:06.712Z,94538.06
2022-12-24T10:36:13.378Z,94546.72
2022-12-24T10:38:15.121Z,94547.16
2022-12-24T10:40:31.609Z,94529.03
2022-12-24T10:42:51.124Z,94532.53
2022-12-24T10:44:58.119Z,94533.84
2022-12-24T10:46:59.961Z,94529.13
2022-12-24T10:49:04.433Z,94521.50
2022-12-24T10:51:13.495Z,94532.16
2022-12-24T10:53:20.459Z,94528.41
2022-12-24T10:55:29.087Z,94530.78
2022-12-24T10:57:30.784Z,94513.59
2022-12-24T10:59:59.702Z,94517.91
2022-12-24T11:02:02.191Z,94512.06
2022-12-24T11:04:04.696Z,94527.41
2022-12-24T11:06:10.957Z,94533.63
2022-12-24T11:08:17.445Z,94527.19
2022-12-24T11:10:23.970Z,94532.72
2022-12-24T11:12:32.610Z,94532.28
2022-12-24T11:14:38.885Z,94532.28
2022-12-24T11:16:40.570Z,94516.53
2022-12-24T11:18:51.962Z,94518.09
2022-12-24T11:20:54.240Z,94520.81
2022-12-24T11:22:56.887Z,94515.22
2022-12-24T11:25:20.391Z,94522.53
2022-12-24T11:27:24.571Z,94516.38
2022-12-24T11:29:28.259Z,94523.94
2022-12-24T11:31:33.064Z,94516.66
2022-12-24T11:33:47.450Z,94530.88
2022-12-24T11:35:56.838Z,94538.47
2022-12-24T11:38:01.517Z,94532.00
2022-12-24T11:40:03.562Z,94518.00
2022-12-24T11:42:05.521Z,94525.25
2022-12-24T11:44:09.244Z,94514.88
2022-12-24T11:46:21.208Z,94520.22
2022-12-24T11:48:34.059Z,94517.34
2022-12-24T11:50:40.112Z,94516.28
2022-12-24T11:52:42.889Z,94508.41
2022-12-24T11:55:13.764Z,94513.47
2022-12-24T11:57:20.654Z,94522.25
2022-12-24T11:59:44.239Z,94515.88
2022-12-24T12:02:29.265Z,94511.84
2022-12-24T12:04:33.732Z,94507.84
2022-12-24T12:06:42.586Z,94494.94
2022-12-24T12:08:46.488Z,94495.66
2022-12-24T12:10:48.444Z,94494.09
2022-12-24T12:13:15.938Z,94495.06
2022-12-24T12:15:22.190Z,94503.41
2022-12-24T12:17:35.567Z,94497.38
2022-12-24T12:19:39.210Z,94496.03
2022-12-24T12:21:45.179Z,94511.50
2022-12-24T12:24:04.748Z,94510.50
2022-12-24T12:26:23.728Z,94506.91
2022-12-24T12:28:41.821Z,94505.59
2022-12-24T12:30:45.244Z,94500.31
2022-12-24T12:33:06.227Z,94499.16
2022-12-24T12:35:27.744Z,94494.44
2022-12-24T12:37:35.874Z,94493.50
2022-12-24T12:39:37.684Z,94496.91
2022-12-24T12:41:45.139Z,94500.28
2022-12-24T12:44:29.882Z,94500.03
2022-12-24T12:46:44.156Z,94500.72
2022-12-24T12:49:02.946Z,94502.88
2022-12-24T12:51:27.116Z,94506.78
2022-12-24T12:53:50.536Z,94519.53
2022-12-24T12:56:17.460Z,94521.78
2022-12-24T12:59:00.630Z,94522.13
2022-12-24T13:01:36.310Z,94527.19
2022-12-24T13:04:08.242Z,94526.66
2022-12-24T13:06:18.782Z,94531.41
2022-12-24T13:08:46.111Z,94525.34
2022-12-24T13:11:02.495Z,94529.50
2022-12-24T13:13:30.228Z,94519.97
2022-12-24T13:15:41.952Z,94531.25
2022-12-24T13:18:01.473Z,94540.06
2022-12-24T13:20:32.580Z,94533.44
2022-12-24T13:22:34.436Z,94543.28
2022-12-24T13:24:36.770Z,94537.53
2022-12-24T13:26:38.685Z,94541.28
2022-12-24T13:28:40.432Z,94547.06
2022-12-24T13:30:42.537Z,94554.00
2022-12-24T13:32:50.404Z,94554.50
2022-12-24T13:35:03.146Z,94554.22
2022-12-24T13:37:20.136Z,94547.34
2022-12-24T13:39:22.085Z,94546.66
2022-12-24T13:41:40.638Z,94554.41
2022-12-24T13:44:16.116Z,94560.16
2022-12-24T13:46:58.312Z,94560.16
2022-12-24T13:49:11.778Z,94561.94
2022-12-24T13:51:25.243Z,94570.63
2022-12-24T13:53:48.177Z,94573.91
2022-12-24T13:55:53.086Z,94582.06
2022-12-24T13:57:57.492Z,94574.44
2022-12-24T14:00:21.447Z,94575.03
2022-12-24T14:02:23.595Z,94564.47
2022-12-24T14:04:29.404Z,94566.75
2022-12-24T14:06:34.119Z,94565.81
2022-12-24T14:08:44.649Z,94571.31
2022-12-24T14:10:57.692Z,94566.22
2022-12-24T14:12:59.547Z,94577.59
2022-12-24T14:15:39.657Z,94583.38
2022-12-24T14:17:41.483Z,94578.97
2022-12-24T14:19:46.613Z,94594.16
2022-12-24T14:22:16.398Z,94596.09
2022-12-24T14:24:20.997Z,94594.03
2022-12-24T14:26:28.646Z,94593.97
2022-12-24T14:28:35.939Z,94596.81
2022-12-24T14:30:37.633Z,94592.88
2022-12-24T14:32:41.501Z,94599.69
2022-12-24T14:34:43.165Z,94597.34
2022-12-24T14:36:46.640Z,94598.53
2022-12-24T14:38:49.941Z,94605.47
2022-12-24T14:41:13.394Z,94606.66
2022-12-24T14:43:52.866Z,94606.88
2022-12-24T14:46:22.045Z,94606.94
2022-12-24T14:49:14.681Z,94604.69
2022-12-24T14:51:50.557Z,94607.16
2022-12-24T14:54:13.835Z,94603.41
2022-12-24T14:56:20.773Z,94607.03
2022-12-24T14:58:26.871Z,94603.63
2022-12-24T15:00:28.739Z,94610.78
2022-12-24T15:02:50.604Z,94617.81
2022-12-24T15:05:19.789Z,94616.03
2022-12-24T15:07:21.760Z,94612.22
2022-12-24T15:09:29.596Z,94618.09
2022-12-24T15:11:31.354Z,94610.94
2022-12-24T15:13:38.471Z,94623.56
2022-12-24T15:15:46.940Z,94624.53
2022-12-24T15:17:54.494Z,94634.63
2022-12-24T15:19:59.285Z,94646.56
2022-12-24T15:22:02.464Z,94636.66
2022-12-24T15:24:04.711Z,94641.88
2022-12-24T15:26:29.696Z,94639.72
2022-12-24T15:28:37.273Z,94633.09
2022-12-24T15:30:39.070Z,94641.75
2022-12-24T15:32:41.184Z,94641.91
2022-12-24T15:34:46.423Z,94644.00
2022-12-24T15:36:48.202Z,94649.88
2022-12-24T15:38:52.676Z,94643.63
2022-12-24T15:40:55.092Z,94656.28
2022-12-24T15:42:56.849Z,94645.56
2022-12-24T15:45:12.069Z,94650.34
2022-12-24T15:47:19.779Z,94649.34
2022-12-24T15:49:21.648Z,94648.25
2022-12-24T15:51:26.299Z,94647.13
2022-12-24T15:53:27.917Z,94653.47
2022-12-24T15:55:34.132Z,94659.22
2022-12-24T15:57:35.886Z,94658.50
2022-12-24T15:59:37.746Z,94658.69
2022-12-24T16:01:39.789Z,94662.41
2022-12-24T16:03:55.252Z,94664.44
2022-12-24T16:06:04.748Z,94670.91
2022-12-24T16:08:16.770Z,94674.56
2022-12-24T16:10:25.889Z,94669.94
2022-12-24T16:12:27.621Z,94674.56
2022-12-24T16:14:30.128Z,94669.75
2022-12-24T16:16:41.974Z,94666.06
2022-12-24T16:18:51.484Z,94673.72
2022-12-24T16:20:54.938Z,94661.19
2022-12-24T16:22:56.662Z,94663.19
2022-12-24T16:25:08.934Z,94664.75
2022-12-24T16:27:13.788Z,94665.47
2022-12-24T16:29:16.519Z,94673.03
2022-12-24T16:31:19.787Z,94677.72
2022-12-24T16:33:23.604Z,94675.94
2022-12-24T16:35:27.811Z,94701.13
2022-12-24T16:37:29.653Z,94694.59
2022-12-24T16:39:33.568Z,94709.91
2022-12-24T16:41:55.069Z,94716.81
2022-12-24T16:43:56.820Z,94706.78
2022-12-24T16:46:04.463Z,94717.66
2022-12-24T16:48:07.376Z,94716.59
2022-12-24T16:50:15.551Z,94722.09
2022-12-24T16:52:26.352Z,94720.22
2022-12-24T16:54:30.254Z,94727.59
2022-12-24T16:56:31.801Z,94734.50
2022-12-24T16:58:33.610Z,94740.22
2022-12-24T17:00:36.363Z,94743.56
2022-12-24T17:02:39.879Z,94748.47
2022-12-24T17:04:42.184Z,94756.34
2022-12-24T17:06:44.316Z,94755.38
2022-12-24T17:08:45.952Z,94746.41
2022-12-24T17:10:51.832Z,94738.78
2022-12-24T17:12:53.817Z,94743.44
2022-12-24T17:14:55.522Z,94750.34
2022-12-24T17:16:57.241Z,94752.00
2022-12-24T17:18:58.872Z,94754.25
2022-12-24T17:21:01.905Z,94756.69
2022-12-24T17:23:03.915Z,94760.28
2022-12-24T17:25:06.743Z,94767.66
2022-12-24T17:27:08.565Z,94758.03
2022-12-24T17:29:10.927Z,94768.84
2022-12-24T17:31:15.263Z,94758.22
2022-12-24T17:33:17.089Z,94755.72
2022-12-24T17:35:18.927Z,94763.50
2022-12-24T17:37:20.639Z,94772.25
2022-12-24T17:39:27.535Z,94765.78
2022-12-24T17:41:29.714Z,94768.09
2022-12-24T17:43:31.588Z,94777.53
2022-12-24T17:45:33.435Z,94771.72
2022-12-24T17:47:35.107Z,94771.03
2022-12-24T17:49:37.408Z,94770.28
2022-12-24T17:51:45.062Z,94776.59
2022-12-24T17:53:48.293Z,94771.66
2022-12-24T17:55:50.001Z,94768.13
2022-12-24T17:57:51.966Z,94771.88
2022-12-24T17:59:53.679Z,94765.69
2022-12-24T18:01:55.546Z,94777.09
2022-12-24T18:04:02.122Z,94771.38
2022-12-24T18:06:06.058Z,94763.88
2022-12-24T18:08:07.692Z,94779.84
2022-12-24T18:10:09.925Z,94781.16
2022-12-24T18:12:13.072Z,94770.66
2022-12-24T18:14:15.495Z,94768.00
2022-12-24T18:16:22.779Z,94757.69
2022-12-24T18:18:25.014Z,94774.53
2022-12-24T18:20:27.021Z,94771.63
2022-12-24T18:22:28.748Z,94779.97
2022-12-24T18:24:30.428Z,94774.47
2022-12-24T18:26:33.443Z,94773.03
2022-12-24T18:28:35.178Z,94779.78
2022-12-24T18:30:39.091Z,94781.28
2022-12-24T18:32:40.853Z,94790.63
2022-12-24T18:34:43.167Z,94796.97
2022-12-24T18:36:48.283Z,94799.44
2022-12-24T18:38:53.050Z,94796.81
2022-12-24T18:40:54.822Z,94800.63
2022-12-24T18:42:56.649Z,94805.34
2022-12-24T18:44:58.405Z,94804.94
2022-12-24T18:47:00.233Z,94810.16
2022-12-24T18:49:02.415Z,94812.09
2022-12-24T18:51:05.115Z,94805.63
2022-12-24T18:53:07.839Z,94809.94
2022-12-24T18:55:09.920Z,94817.50
2022-12-24T18:57:12.223Z,94813.78
2022-12-24T18:59:13.872Z,94811.31
2022-12-24T19:01:18.776Z,94803.78
2022-12-24T19:03:20.620Z,94821.75
2022-12-24T19:05:22.450Z,94830.28
2022-12-24T19:07:24.269Z,94838.44
2022-12-24T19:09:26.180Z,94843.94
2022-12-24T19:11:30.032Z,94855.00
2022-12-24T19:13:32.108Z,94861.03
2022-12-24T19:15:35.977Z,94857.75
2022-12-24T19:17:37.856Z,94864.22
2022-12-24T19:19:40.247Z,94860.63
2022-12-24T19:21:41.994Z,94869.69
2022-12-24T19:23:44.569Z,94875.59
2022-12-24T19:25:46.327Z,94869.69
2022-12-24T19:27:48.157Z,94873.69
2022-12-24T19:29:49.918Z,94869.56
2022-12-24T19:31:51.761Z,94873.66
2022-12-24T19:33:56.102Z,94871.19
2022-12-24T19:35:57.793Z,94868.81
2022-12-24T19:37:59.747Z,94877.31
2022-12-24T19:40:01.455Z,94874.44
2022-12-24T19:42:03.577Z,94873.84
2022-12-24T19:44:05.492Z,94872.06
2022-12-24T19:46:12.538Z,94868.31
2022-12-24T19:48:14.412Z,94864.06
2022-12-24T19:50:17.290Z,94859.13
2022-12-24T19:52:19.035Z,94863.91
2022-12-24T19:54:20.982Z,94860.34
2022-12-24T19:56:23.859Z,94849.44
2022-12-24T19:58:26.656Z,94843.81
2022-12-24T20:00:28.451Z,94846.81
2022-12-24T20:02:30.333Z,94854.06
2022-12-24T20:04:32.399Z,94854.75
2022-12-24T20:06:35.462Z,94864.44
2022-12-24T20:08:38.110Z,94850.88
2022-12-24T20:10:41.623Z,94849.22
2022-12-24T20:12:43.312Z,94844.75
2022-12-24T20:14:45.459Z,94845.25
2022-12-24T20:16:47.137Z,94837.31
2022-12-24T20:18:53.328Z,94849.44
2022-12-24T20:20:59.235Z,94846.59
2022-12-24T20:23:01.504Z,94855.63
2022-12-24T20:25:03.359Z,94864.69
2022-12-24T20:27:05.199Z,94861.91
2022-12-24T20:29:08.942Z,94853.75
2022-12-24T20:31:12.754Z,94852.50
2022-12-24T20:33:14.356Z,94854.66
2022-12-24T20:35:16.170Z,94845.69
2022-12-24T20:37:17.965Z,94844.22
2022-12-24T20:39:19.696Z,94854.66
2022-12-24T20:41:22.720Z,94861.19
2022-12-24T20:43:26.490Z,94852.41
2022-12-24T20:45:30.025Z,94859.09
2022-12-24T20:47:32.349Z,94849.31
2022-12-24T20:49:34.082Z,94850.09
2022-12-24T20:51:35.773Z,94861.50
2022-12-24T20:53:39.271Z,94868.38
2022-12-24T20:55:41.295Z,94869.19
2022-12-24T20:57:43.681Z,94875.41
2022-12-24T20:59:45.371Z,94878.59
2022-12-24T21:01:47.192Z,94883.13
2022-12-24T21:03:49.042Z,94879.94
2022-12-24T21:05:50.756Z,94885.03
2022-12-24T21:07:52.465Z,94888.78
2022-12-24T21:09:54.200Z,94887.78
2022-12-24T21:11:56.009Z,94895.38
2022-12-24T21:13:57.797Z,94895.63
2022-12-24T21:15:59.540Z,94898.50
2022-12-24T21:18:01.951Z,94910.63
2022-12-24T21:20:04.874Z,94902.50
2022-12-24T21:22:06.536Z,94905.91
2022-12-24T21:24:09.397Z,94899.44
2022-12-24T21:26:11.340Z,94895.25
2022-12-24T21:28:13.103Z,94895.03
2022-12-24T21:30:14.876Z,94893.09
2022-12-24T21:32:16.621Z,94899.44
2022-12-24T21:34:18.300Z,94904.16
2022-12-24T21:36:20.881Z,94915.66
2022-12-24T21:38:22.601Z,94911.63
2022-12-24T21:40:24.298Z,94919.78
2022-12-24T21:42:26.730Z,94909.91
2022-12-24T21:44:28.567Z,94916.34
2022-12-24T21:46:30.460Z,94912.53
2022-12-24T21:48:50.847Z,94924.28
2022-12-24T21:50:55.578Z,94922.78
2022-12-24T21:53:18.484Z,94918.94
2022-12-24T21:55:20.151Z,94910.50
2022-12-24T21:57:40.799Z,94919.19
2022-12-24T21:59:42.582Z,94908.19
2022-12-24T22:01:44.444Z,94906.91
2022-12-24T22:03:50.166Z,94910.22
2022-12-24T22:05:52.217Z,94902.97
2022-12-24T22:08:13.349Z,94906.50
2022-12-24T22:10:33.778Z,94909.31
2022-12-24T22:12:36.212Z,94905.22
2022-12-24T22:14:38.108Z,94902.00
2022-12-24T22:16:39.747Z,94908.06
2022-12-24T22:18:41.445Z,94909.72
2022-12-24T22:20:44.961Z,94914.91
2022-12-24T22:22:48.603Z,94910.09
2022-12-24T22:24:50.301Z,94909.56
2022-12-24T22:26:52.584Z,94915.06
2022-12-24T22:28:54.365Z,94909.59
2022-12-24T22:30:57.213Z,94912.38
2022-12-24T22:32:59.208Z,94915.81
2022-12-24T22:35:00.921Z,94908.53
2022-12-24T22:37:02.659Z,94907.31
2022-12-24T22:39:04.841Z,94906.94
2022-12-24T22:41:10.702Z,94911.06
2022-12-24T22:43:12.321Z,94913.28
2022-12-24T22:45:18.537Z,94911.13
2022-12-24T22:47:23.734Z,94907.38
2022-12-24T22:49:25.319Z,94917.03
2022-12-24T22:51:28.161Z,94923.88
2022-12-24T22:53:29.890Z,94919.66
2022-12-24T22:55:31.536Z,94929.41
2022-12-24T22:57:33.279Z,94933.13
2022-12-24T22:59:36.471Z,94927.38
2022-12-24T23:01:39.855Z,94920.91
2022-12-24T23:03:41.944Z,94926.28
2022-12-24T23:05:44.185Z,94929.19
2022-12-24T23:07:45.985Z,94937.28
2022-12-24T23:09:47.592Z,94936.03
2022-12-24T23:11:49.291Z,94930.94
2022-12-24T23:14:09.960Z,94940.00
2022-12-24T23:16:11.755Z,94946.34
2022-12-24T23:18:13.743Z,94951.19
2022-12-24T23:20:15.823Z,94939.47
2022-12-24T23:22:17.486Z,94940.38
2022-12-24T23:24:19.152Z,94945.97
2022-12-24T23:26:22.251Z,94943.31
2022-12-24T23:28:24.079Z,94946.09
2022-12-24T23:30:25.809Z,94941.59
2022-12-24T23:32:27.644Z,94937.88
2022-12-24T23:34:29.354Z,94942.66
2022-12-24T23:36:31.041Z,94936.50
2022-12-24T23:38:33.345Z,94937.16
2022-12-24T23:40:35.083Z,94947.91
2022-12-24T23:42:36.703Z,94951.44
2022-12-24T23:44:38.466Z,94954.63
2022-12-24T23:46:40.726Z,94950.63
2022-12-24T23:48:42.744Z,94951.75
2022-12-24T23:50:45.328Z,94952.31
2022-12-24T23:52:47.046Z,94960.25
2022-12-24T23:54:48.783Z,94957.78
2022-12-24T23:56:50.498Z,94973.75
2022-12-24T23:58:52.283Z,94965.88
